createdAt,value
2022-10-25T00:01:47.268Z,97793.50
2022-10-25T00:04:14.336Z,97799.41
2022-10-25T00:06:40.970Z,97792.16
2022-10-25T00:09:08.050Z,97793.31
2022-10-25T00:11:34.942Z,97784.00
2022-10-25T00:14:03.007Z,97774.69
2022-10-25T00:16:31.314Z,97785.22
2022-10-25T00:18:57.751Z,97790.13
2022-10-25T00:21:24.391Z,97789.44
2022-10-25T00:23:51.457Z,97794.00
2022-10-25T00:26:18.237Z,97789.78
2022-10-25T00:28:44.683Z,97782.50
2022-10-25T00:31:12.472Z,97788.91
2022-10-25T00:33:39.419Z,97786.22
2022-10-25T00:36:05.895Z,97784.69
2022-10-25T00:38:32.389Z,97774.34
2022-10-25T00:40:59.144Z,97773.84
2022-10-25T00:43:32.870Z,97777.09
2022-10-25T00:48:28.046Z,97787.59
2022-10-25T00:50:54.725Z,97780.47
2022-10-25T00:53:28.049Z,97775.06
2022-10-25T00:56:08.351Z,97781.13
2022-10-25T00:58:37.377Z,97792.84
2022-10-25T01:01:05.976Z,97799.44
2022-10-25T01:03:34.295Z,97790.28
2022-10-25T01:06:01.899Z,97799.59
2022-10-25T01:08:28.440Z,97792.34
2022-10-25T01:10:54.845Z,97788.44
2022-10-25T01:13:21.339Z,97792.00
2022-10-25T01:16:03.159Z,97797.22
2022-10-25T01:18:38.805Z,97795.34
2022-10-25T01:21:11.309Z,97792.28
2022-10-25T01:23:43.791Z,97785.19
2022-10-25T01:26:10.193Z,97786.72
2022-10-25T01:28:36.591Z,97779.75
2022-10-25T01:31:06.113Z,97787.88
2022-10-25T01:33:39.537Z,97783.50
2022-10-25T01:36:18.326Z,97785.84
2022-10-25T01:38:50.553Z,97787.56
2022-10-25T01:41:28.092Z,97781.97
2022-10-25T01:44:07.759Z,97787.22
2022-10-25T01:46:46.414Z,97783.47
2022-10-25T01:49:16.457Z,97782.31
2022-10-25T01:51:42.981Z,97789.59
2022-10-25T01:54:23.094Z,97781.31
2022-10-25T01:56:59.084Z,97773.00
2022-10-25T01:59:40.101Z,97777.06
2022-10-25T02:02:16.340Z,97777.94
2022-10-25T02:04:51.651Z,97779.78
2022-10-25T02:07:37.134Z,97780.63
2022-10-25T02:10:07.331Z,97782.53
2022-10-25T02:12:59.829Z,97779.81
2022-10-25T02:15:34.902Z,97772.69
2022-10-25T02:18:04.506Z,97771.53
2022-10-25T02:20:33.597Z,97775.75
2022-10-25T02:23:02.463Z,97769.31
2022-10-25T02:25:32.300Z,97772.00
2022-10-25T02:27:59.822Z,97774.03
2022-10-25T02:30:26.914Z,97767.66
2022-10-25T02:32:53.336Z,97776.25
2022-10-25T02:35:19.934Z,97782.34
2022-10-25T02:37:46.568Z,97789.28
2022-10-25T02:40:13.474Z,97785.56
2022-10-25T02:42:39.984Z,97782.19
2022-10-25T02:45:07.090Z,97774.41
2022-10-25T02:47:33.517Z,97786.22
2022-10-25T02:50:00.122Z,97777.09
2022-10-25T02:52:26.675Z,97783.47
2022-10-25T02:54:53.111Z,97780.63
2022-10-25T02:57:19.515Z,97778.28
2022-10-25T02:59:45.969Z,97784.22
2022-10-25T03:02:12.487Z,97782.16
2022-10-25T03:04:38.908Z,97787.94
2022-10-25T03:07:05.346Z,97802.50
2022-10-25T03:09:31.750Z,97810.09
2022-10-25T03:11:58.292Z,97816.19
2022-10-25T03:14:25.472Z,97816.34
2022-10-25T03:16:51.920Z,97816.81
2022-10-25T03:19:18.361Z,97826.31
2022-10-25T03:21:44.841Z,97820.41
2022-10-25T03:24:11.257Z,97823.06
2022-10-25T03:26:37.739Z,97836.44
2022-10-25T03:29:04.227Z,97830.38
2022-10-25T03:31:30.623Z,97835.41
2022-10-25T03:33:57.041Z,97836.44
2022-10-25T03:36:23.492Z,97829.88
2022-10-25T03:38:49.895Z,97828.31
2022-10-25T03:41:16.328Z,97826.28
2022-10-25T03:43:42.741Z,97832.59
2022-10-25T03:46:09.176Z,97840.06
2022-10-25T03:48:36.330Z,97835.97
2022-10-25T03:51:02.816Z,97826.13
2022-10-25T03:53:29.302Z,97816.81
2022-10-25T03:55:55.757Z,97829.16
2022-10-25T03:58:22.201Z,97827.66
2022-10-25T04:00:48.723Z,97816.44
2022-10-25T04:03:15.348Z,97831.34
2022-10-25T04:05:41.783Z,97830.91
2022-10-25T04:08:08.226Z,97842.09
2022-10-25T04:10:34.681Z,97836.47
2022-10-25T04:13:01.208Z,97844.25
2022-10-25T04:15:27.694Z,97838.34
2022-10-25T04:17:54.774Z,97833.94
2022-10-25T04:20:21.277Z,97835.41
2022-10-25T04:22:56.884Z,97831.84
2022-10-25T04:25:23.950Z,97831.34
2022-10-25T04:27:50.517Z,97834.28
2022-10-25T04:30:17.198Z,97864.38
2022-10-25T04:32:43.779Z,97871.50
2022-10-25T04:35:10.769Z,97870.81
2022-10-25T04:37:37.209Z,97871.34
2022-10-25T04:40:03.873Z,97863.22
2022-10-25T04:42:32.683Z,97863.34
2022-10-25T04:44:59.069Z,97854.94
2022-10-25T04:47:25.493Z,97853.53
2022-10-25T04:49:51.922Z,97847.75
2022-10-25T04:52:19.221Z,97847.91
2022-10-25T04:54:45.625Z,97845.00
2022-10-25T04:57:12.017Z,97841.63
2022-10-25T04:59:38.641Z,97838.59
2022-10-25T05:02:05.549Z,97843.38
2022-10-25T05:04:32.024Z,97828.00
2022-10-25T05:06:58.420Z,97817.34
2022-10-25T05:09:24.857Z,97816.00
2022-10-25T05:11:51.268Z,97814.13
2022-10-25T05:14:17.713Z,97814.31
2022-10-25T05:16:44.133Z,97813.97
2022-10-25T05:19:10.561Z,97798.06
2022-10-25T05:21:37.038Z,97805.19
2022-10-25T05:24:03.608Z,97804.34
2022-10-25T05:26:30.921Z,97803.13
2022-10-25T05:28:57.515Z,97824.78
2022-10-25T05:31:25.215Z,97834.13
2022-10-25T05:33:52.738Z,97832.59
2022-10-25T05:36:19.559Z,97831.22
2022-10-25T05:38:46.334Z,97836.59
2022-10-25T05:41:14.001Z,97830.50
2022-10-25T05:43:41.151Z,97825.81
2022-10-25T05:46:08.752Z,97828.19
2022-10-25T05:48:35.941Z,97837.31
2022-10-25T05:51:28.638Z,97848.97
2022-10-25T05:53:56.730Z,97847.59
2022-10-25T05:56:24.403Z,97854.56
2022-10-25T05:58:51.289Z,97849.47
2022-10-25T06:01:18.765Z,97842.34
2022-10-25T06:03:47.911Z,97838.69
2022-10-25T06:06:14.901Z,97853.00
2022-10-25T06:08:41.534Z,97856.59
2022-10-25T06:11:09.238Z,97853.19
2022-10-25T06:13:35.823Z,97848.13
2022-10-25T06:16:06.417Z,97857.28
2022-10-25T06:18:33.570Z,97858.47
2022-10-25T06:21:03.880Z,97870.44
2022-10-25T06:23:31.569Z,97880.28
2022-10-25T06:26:01.983Z,97894.84
2022-10-25T06:28:29.099Z,97892.28
2022-10-25T06:31:00.358Z,97901.59
2022-10-25T06:33:28.066Z,97905.00
2022-10-25T06:35:55.686Z,97910.28
2022-10-25T06:38:22.197Z,97922.38
2022-10-25T06:40:48.606Z,97910.19
2022-10-25T06:43:15.046Z,97918.50
2022-10-25T06:45:41.815Z,97917.88
2022-10-25T06:48:08.250Z,97914.84
2022-10-25T06:50:34.907Z,97917.38
2022-10-25T06:53:01.334Z,97918.22
2022-10-25T06:55:27.772Z,97911.50
2022-10-25T06:57:56.916Z,97918.09
2022-10-25T07:00:23.462Z,97921.28
2022-10-25T07:02:59.678Z,97924.38
2022-10-25T07:05:26.861Z,97941.44
2022-10-25T07:07:53.851Z,97940.66
2022-10-25T07:10:20.263Z,97942.13
2022-10-25T07:12:46.668Z,97933.19
2022-10-25T07:15:13.231Z,97940.47
2022-10-25T07:17:39.728Z,97937.63
2022-10-25T07:20:06.525Z,97942.31
2022-10-25T07:22:33.134Z,97936.88
2022-10-25T07:24:59.719Z,97936.88
2022-10-25T07:27:26.157Z,97941.44
2022-10-25T07:29:52.598Z,97934.00
2022-10-25T07:32:19.041Z,97936.81
2022-10-25T07:34:45.455Z,97938.56
2022-10-25T07:37:11.911Z,97934.22
2022-10-25T07:39:38.339Z,97930.41
2022-10-25T07:42:04.866Z,97940.25
2022-10-25T07:44:31.291Z,97947.75
2022-10-25T07:46:57.713Z,97947.53
2022-10-25T07:49:24.178Z,97936.16
2022-10-25T07:51:50.627Z,97941.47
2022-10-25T07:54:17.065Z,97945.94
2022-10-25T07:56:43.534Z,97936.78
2022-10-25T07:59:10.045Z,97942.47
2022-10-25T08:01:36.849Z,97948.13
2022-10-25T08:04:03.567Z,97942.81
2022-10-25T08:06:30.001Z,97937.69
2022-10-25T08:08:56.408Z,97930.75
2022-10-25T08:11:22.847Z,97940.28
2022-10-25T08:13:50.291Z,97931.53
2022-10-25T08:16:16.797Z,97929.47
2022-10-25T08:18:44.083Z,97921.66
2022-10-25T08:21:10.551Z,97926.94
2022-10-25T08:23:37.035Z,97924.53
2022-10-25T08:26:03.550Z,97923.94
2022-10-25T08:28:33.130Z,97930.59
2022-10-25T08:31:01.148Z,97924.69
2022-10-25T08:33:28.469Z,97921.47
2022-10-25T08:35:54.873Z,97923.13
2022-10-25T08:38:21.344Z,97922.28
2022-10-25T08:40:57.024Z,97926.22
2022-10-25T08:43:23.481Z,97923.22
2022-10-25T08:45:52.967Z,97921.31
2022-10-25T08:48:22.370Z,97930.28
2022-10-25T08:50:52.287Z,97931.91
2022-10-25T08:53:22.292Z,97927.41
2022-10-25T08:56:05.064Z,97930.50
2022-10-25T08:58:37.344Z,97936.44
2022-10-25T09:01:06.473Z,97928.56
2022-10-25T09:03:33.231Z,97934.88
2022-10-25T09:06:18.941Z,97932.88
2022-10-25T09:09:23.024Z,97933.13
2022-10-25T09:12:08.258Z,97930.84
2022-10-25T09:14:50.735Z,97930.25
2022-10-25T09:17:21.342Z,97934.25
2022-10-25T09:19:56.975Z,97937.41
2022-10-25T09:22:28.366Z,97941.44
2022-10-25T09:24:59.836Z,97943.06
2022-10-25T09:27:36.441Z,97944.31
2022-10-25T09:30:07.435Z,97942.22
2022-10-25T09:32:43.460Z,97958.31
2022-10-25T09:35:39.178Z,97958.78
2022-10-25T09:38:10.558Z,97962.84
2022-10-25T09:40:47.591Z,97959.91
2022-10-25T09:43:17.747Z,97964.84
2022-10-25T09:45:46.809Z,97964.41
2022-10-25T09:48:17.094Z,97963.88
2022-10-25T09:50:53.555Z,97963.00
2022-10-25T09:53:23.103Z,97960.94
2022-10-25T09:55:50.564Z,97958.94
2022-10-25T09:58:19.394Z,97952.72
2022-10-25T10:00:45.949Z,97946.66
2022-10-25T10:03:13.101Z,97947.38
2022-10-25T10:05:42.051Z,97939.69
2022-10-25T10:08:08.903Z,97947.88
2022-10-25T10:10:35.650Z,97943.56
2022-10-25T10:13:17.326Z,97941.06
2022-10-25T10:15:49.640Z,97939.34
2022-10-25T10:18:23.758Z,97945.63
2022-10-25T10:21:04.780Z,97947.19
2022-10-25T10:23:37.389Z,97951.69
2022-10-25T10:26:12.023Z,97949.81
2022-10-25T10:28:44.065Z,97954.66
2022-10-25T10:31:10.535Z,97951.84
2022-10-25T10:33:38.430Z,97947.66
2022-10-25T10:36:21.607Z,97947.75
2022-10-25T10:38:48.347Z,97944.78
2022-10-25T10:41:20.717Z,97951.50
2022-10-25T10:43:47.158Z,97950.38
2022-10-25T10:46:15.267Z,97945.78
2022-10-25T10:48:43.519Z,97954.56
2022-10-25T10:51:39.064Z,97937.81
2022-10-25T10:54:22.018Z,97940.84
2022-10-25T10:56:59.577Z,97938.91
2022-10-25T10:59:29.026Z,97946.69
2022-10-25T11:01:56.616Z,97938.66
2022-10-25T11:04:26.091Z,97935.41
2022-10-25T11:06:52.742Z,97930.88
2022-10-25T11:09:24.350Z,97929.81
2022-10-25T11:12:09.543Z,97927.34
2022-10-25T11:14:36.084Z,97921.50
2022-10-25T11:17:22.809Z,97914.19
2022-10-25T11:19:52.325Z,97918.94
2022-10-25T11:22:18.746Z,97917.91
2022-10-25T11:24:54.946Z,97921.91
2022-10-25T11:27:39.567Z,97915.69
2022-10-25T11:30:22.734Z,97921.22
2022-10-25T11:33:05.176Z,97914.59
2022-10-25T11:35:45.287Z,97917.88
2022-10-25T11:38:21.418Z,97916.94
2022-10-25T11:41:04.654Z,97909.53
2022-10-25T11:43:43.113Z,97908.69
2022-10-25T11:46:31.483Z,97907.56
2022-10-25T11:49:13.178Z,97909.09
2022-10-25T11:51:58.506Z,97912.56
2022-10-25T11:54:44.926Z,97911.00
2022-10-25T11:57:14.097Z,97905.38
2022-10-25T11:59:58.863Z,97915.03
2022-10-25T12:02:28.355Z,97906.72
2022-10-25T12:04:57.927Z,97905.91
2022-10-25T12:07:24.602Z,97906.13
2022-10-25T12:09:51.048Z,97903.28
2022-10-25T12:12:18.901Z,97897.84
2022-10-25T12:14:48.567Z,97898.28
2022-10-25T12:17:18.026Z,97894.34
2022-10-25T12:19:46.055Z,97890.91
2022-10-25T12:22:18.561Z,97890.81
2022-10-25T12:24:47.878Z,97882.78
2022-10-25T12:27:16.289Z,97892.28
2022-10-25T12:29:46.298Z,97896.06
2022-10-25T12:32:15.931Z,97887.03
2022-10-25T12:34:50.882Z,97895.09
2022-10-25T12:37:26.331Z,97885.81
2022-10-25T12:39:52.929Z,97875.25
2022-10-25T12:42:25.013Z,97880.22
2022-10-25T12:44:58.486Z,97875.19
2022-10-25T12:47:43.738Z,97872.91
2022-10-25T12:50:10.211Z,97870.69
2022-10-25T12:52:38.536Z,97872.50
2022-10-25T12:55:21.584Z,97873.25
2022-10-25T12:57:57.026Z,97866.56
2022-10-25T13:00:24.081Z,97869.22
2022-10-25T13:02:59.418Z,97875.38
2022-10-25T13:05:25.837Z,97872.66
2022-10-25T13:07:54.838Z,97868.47
2022-10-25T13:10:22.441Z,97873.63
2022-10-25T13:13:21.595Z,97870.63
2022-10-25T13:15:50.225Z,97866.31
2022-10-25T13:18:28.964Z,97874.78
2022-10-25T13:20:55.509Z,97870.16
2022-10-25T13:23:40.914Z,97870.25
2022-10-25T13:26:08.434Z,97872.78
2022-10-25T13:28:44.525Z,97868.34
2022-10-25T13:31:28.933Z,97878.78
2022-10-25T13:34:13.809Z,97873.97
2022-10-25T13:36:46.015Z,97867.06
2022-10-25T13:39:15.620Z,97864.13
2022-10-25T13:41:44.518Z,97876.28
2022-10-25T13:44:19.526Z,97875.09
2022-10-25T13:46:46.422Z,97874.38
2022-10-25T13:49:30.372Z,97877.09
2022-10-25T13:51:58.111Z,97872.94
2022-10-25T13:54:24.615Z,97863.16
2022-10-25T13:56:53.066Z,97865.09
2022-10-25T13:59:36.505Z,97869.41
2022-10-25T14:02:17.341Z,97875.41
2022-10-25T14:04:43.966Z,97866.53
2022-10-25T14:07:29.298Z,97872.56
2022-10-25T14:09:55.878Z,97871.44
2022-10-25T14:12:22.930Z,97876.88
2022-10-25T14:14:55.315Z,97866.38
2022-10-25T14:17:30.917Z,97873.81
2022-10-25T14:19:58.845Z,97872.97
2022-10-25T14:22:32.700Z,97870.16
2022-10-25T14:25:02.211Z,97870.44
2022-10-25T14:27:36.312Z,97867.97
2022-10-25T14:30:22.359Z,97864.59
2022-10-25T14:32:54.187Z,97866.34
2022-10-25T14:35:20.959Z,97862.72
2022-10-25T14:37:47.527Z,97877.28
2022-10-25T14:40:18.243Z,97872.38
2022-10-25T14:42:44.860Z,97866.09
2022-10-25T14:45:26.869Z,97866.91
2022-10-25T14:47:53.371Z,97870.66
2022-10-25T14:50:25.821Z,97871.31
2022-10-25T14:52:52.469Z,97873.91
2022-10-25T14:55:27.326Z,97871.81
2022-10-25T14:57:54.075Z,97871.09
2022-10-25T15:00:22.590Z,97877.13
2022-10-25T15:02:53.232Z,97874.81
2022-10-25T15:05:21.129Z,97870.66
2022-10-25T15:07:49.097Z,97873.78
2022-10-25T15:10:36.228Z,97873.63
2022-10-25T15:13:04.554Z,97870.91
2022-10-25T15:15:40.492Z,97878.91
2022-10-25T15:18:19.826Z,97878.34
2022-10-25T15:20:48.940Z,97879.38
2022-10-25T15:23:16.991Z,97870.94
2022-10-25T15:25:43.423Z,97870.66
2022-10-25T15:28:14.282Z,97869.75
2022-10-25T15:30:57.499Z,97867.31
2022-10-25T15:33:28.294Z,97870.69
2022-10-25T15:36:04.676Z,97876.22
2022-10-25T15:38:54.412Z,97871.25
2022-10-25T15:41:19.846Z,97876.44
2022-10-25T15:43:46.251Z,97872.44
2022-10-25T15:46:23.132Z,97885.84
2022-10-25T15:48:49.645Z,97879.81
2022-10-25T15:51:16.214Z,97879.47
2022-10-25T15:53:42.687Z,97880.00
2022-10-25T15:56:12.006Z,97881.16
2022-10-25T15:58:38.430Z,97885.28
2022-10-25T16:01:05.078Z,97886.34
2022-10-25T16:03:31.632Z,97886.00
2022-10-25T16:05:58.129Z,97889.16
2022-10-25T16:08:24.778Z,97886.91
2022-10-25T16:10:51.881Z,97878.16
2022-10-25T16:13:25.696Z,97892.06
2022-10-25T16:15:52.180Z,97882.75
2022-10-25T16:18:18.715Z,97889.25
2022-10-25T16:20:45.245Z,97897.47
2022-10-25T16:23:11.668Z,97891.81
2022-10-25T16:25:38.114Z,97896.66
2022-10-25T16:28:04.565Z,97899.38
2022-10-25T16:30:33.796Z,97904.66
2022-10-25T16:33:00.214Z,97910.81
2022-10-25T16:35:26.631Z,97923.13
2022-10-25T16:37:53.704Z,97917.56
2022-10-25T16:40:21.048Z,97917.78
2022-10-25T16:42:48.218Z,97913.22
2022-10-25T16:45:14.770Z,97928.41
2022-10-25T16:47:41.491Z,97917.78
2022-10-25T16:50:08.277Z,97928.84
2022-10-25T16:52:34.720Z,97925.81
2022-10-25T16:55:01.240Z,97930.91
2022-10-25T16:57:27.662Z,97928.06
2022-10-25T16:59:54.290Z,97932.63
2022-10-25T17:02:22.033Z,97933.34
2022-10-25T17:04:48.680Z,97937.13
2022-10-25T17:07:15.488Z,97933.88
2022-10-25T17:09:42.190Z,97936.78
2022-10-25T17:12:09.405Z,97944.97
2022-10-25T17:14:36.321Z,97944.97
2022-10-25T17:17:03.414Z,97954.44
2022-10-25T17:19:29.927Z,97955.13
2022-10-25T17:21:56.584Z,97950.28
2022-10-25T17:24:23.382Z,97954.88
2022-10-25T17:26:49.980Z,97955.34
2022-10-25T17:29:17.149Z,97958.59
2022-10-25T17:31:44.154Z,97964.84
2022-10-25T17:34:10.933Z,97965.03
2022-10-25T17:36:38.186Z,97963.69
2022-10-25T17:39:06.373Z,97958.25
2022-10-25T17:41:32.855Z,97957.94
2022-10-25T17:43:59.286Z,97965.38
2022-10-25T17:46:27.602Z,97965.38
2022-10-25T17:48:55.482Z,97965.72
2022-10-25T17:51:23.336Z,97968.75
2022-10-25T17:53:54.237Z,97967.03
2022-10-25T17:56:21.865Z,97966.19
2022-10-25T17:58:49.011Z,97968.69
2022-10-25T18:01:17.419Z,97970.72
2022-10-25T18:03:44.310Z,97971.06
2022-10-25T18:06:12.873Z,97968.50
2022-10-25T18:08:39.711Z,97966.09
2022-10-25T18:11:09.790Z,97967.47
2022-10-25T18:13:37.654Z,97969.34
2022-10-25T18:18:36.338Z,97969.16
2022-10-25T18:21:03.701Z,97969.31
2022-10-25T18:23:30.121Z,97972.84
2022-10-25T18:28:22.945Z,97973.69
2022-10-25T18:30:49.398Z,97972.47
2022-10-25T18:33:15.969Z,97967.41
2022-10-25T18:35:42.424Z,97974.69
2022-10-25T18:38:08.852Z,97977.38
2022-10-25T18:40:35.901Z,97979.44
2022-10-25T18:43:02.531Z,97979.34
2022-10-25T18:45:28.991Z,97972.94
2022-10-25T18:47:55.750Z,97972.53
2022-10-25T18:50:22.815Z,97971.72
2022-10-25T18:52:49.237Z,97978.09
2022-10-25T18:55:15.748Z,97973.69
2022-10-25T18:57:42.162Z,97975.91
2022-10-25T19:00:09.054Z,97983.31
2022-10-25T19:02:37.779Z,97989.16
2022-10-25T19:05:04.748Z,97977.28
2022-10-25T19:07:31.244Z,97982.38
2022-10-25T19:09:57.664Z,97983.94
2022-10-25T19:12:24.085Z,97983.16
2022-10-25T19:14:50.483Z,97982.00
2022-10-25T19:17:16.914Z,97988.50
2022-10-25T19:19:43.365Z,97987.47
2022-10-25T19:22:09.790Z,97988.94
2022-10-25T19:24:38.218Z,97995.66
2022-10-25T19:27:04.669Z,97988.59
2022-10-25T19:29:31.108Z,97988.69
2022-10-25T19:31:57.929Z,97999.28
2022-10-25T19:34:24.337Z,97992.69
2022-10-25T19:36:51.952Z,97991.59
2022-10-25T19:39:18.441Z,97990.53
2022-10-25T19:41:44.859Z,97993.50
2022-10-25T19:44:11.330Z,98002.19
2022-10-25T19:46:37.761Z,97993.72
2022-10-25T19:49:05.763Z,97998.75
2022-10-25T19:51:32.725Z,97995.88
2022-10-25T19:53:59.190Z,97999.28
2022-10-25T19:56:25.605Z,97999.59
2022-10-25T19:58:52.095Z,98001.91
2022-10-25T20:01:19.823Z,98007.63
2022-10-25T20:03:48.537Z,98008.56
2022-10-25T20:06:18.737Z,98005.78
2022-10-25T20:08:48.574Z,98003.44
2022-10-25T20:11:16.392Z,98011.59
2022-10-25T20:13:42.869Z,98016.22
2022-10-25T20:16:09.734Z,98015.63
2022-10-25T20:18:37.346Z,98010.78
2022-10-25T20:21:07.305Z,98006.38
2022-10-25T20:23:34.263Z,98011.78
2022-10-25T20:26:09.486Z,98007.63
2022-10-25T20:28:35.923Z,97999.91
2022-10-25T20:31:03.309Z,98008.38
2022-10-25T20:33:29.949Z,98011.56
2022-10-25T20:36:00.467Z,98001.28
2022-10-25T20:38:27.058Z,98010.41
2022-10-25T20:40:53.498Z,98008.63
2022-10-25T20:43:20.101Z,98015.34
2022-10-25T20:45:48.133Z,98003.38
2022-10-25T20:48:17.298Z,98005.44
2022-10-25T20:50:49.438Z,98002.84
2022-10-25T20:53:16.577Z,98007.78
2022-10-25T20:55:44.746Z,98004.44
2022-10-25T20:58:11.206Z,98013.16
2022-10-25T21:00:37.739Z,98006.31
2022-10-25T21:03:04.147Z,98002.97
2022-10-25T21:05:30.612Z,98007.41
2022-10-25T21:07:57.059Z,98006.50
2022-10-25T21:10:23.550Z,98004.66
2022-10-25T21:12:49.980Z,97995.03
2022-10-25T21:15:16.440Z,97997.56
2022-10-25T21:17:48.112Z,98014.69
2022-10-25T21:20:14.720Z,98002.44
2022-10-25T21:22:42.467Z,97999.63
2022-10-25T21:25:09.312Z,98002.81
2022-10-25T21:27:35.730Z,98001.53
2022-10-25T21:30:02.169Z,97999.03
2022-10-25T21:32:29.288Z,98001.41
2022-10-25T21:34:55.812Z,98002.22
2022-10-25T21:37:22.277Z,98009.91
2022-10-25T21:39:48.685Z,98005.69
2022-10-25T21:42:15.173Z,98004.72
2022-10-25T21:44:41.600Z,97999.44
2022-10-25T21:47:08.035Z,98007.41
2022-10-25T21:49:34.564Z,98004.56
2022-10-25T21:52:01.049Z,98001.03
2022-10-25T21:54:28.107Z,98004.59
2022-10-25T21:56:54.933Z,97997.47
2022-10-25T21:59:22.057Z,97994.53
2022-10-25T22:01:48.901Z,97989.31
2022-10-25T22:04:16.049Z,97993.28
2022-10-25T22:06:42.482Z,97996.13
2022-10-25T22:09:08.952Z,97994.19
2022-10-25T22:11:37.070Z,97987.69
2022-10-25T22:14:04.962Z,97996.19
2022-10-25T22:16:31.923Z,97988.09
2022-10-25T22:19:05.640Z,97998.13
2022-10-25T22:21:33.657Z,97997.56
2022-10-25T22:24:00.160Z,97997.75
2022-10-25T22:26:26.789Z,97993.63
2022-10-25T22:28:54.200Z,97997.28
2022-10-25T22:31:22.876Z,98001.78
2022-10-25T22:33:57.203Z,98005.25
2022-10-25T22:36:24.832Z,98001.56
2022-10-25T22:38:51.308Z,97995.63
2022-10-25T22:41:18.851Z,97993.94
2022-10-25T22:43:45.969Z,97990.25
2022-10-25T22:46:14.094Z,97998.34
2022-10-25T22:48:41.616Z,98002.78
2022-10-25T22:51:08.848Z,97996.50
2022-10-25T22:53:35.984Z,97993.41
2022-10-25T22:56:04.170Z,97989.75
2022-10-25T22:58:34.737Z,97997.38
2022-10-25T23:01:05.694Z,98000.75
2022-10-25T23:03:33.460Z,98003.03
2022-10-25T23:06:00.673Z,97998.25
2022-10-25T23:08:27.764Z,97994.28
2022-10-25T23:11:01.817Z,97998.00
2022-10-25T23:13:31.737Z,97993.56
2022-10-25T23:15:58.298Z,97989.16
2022-10-25T23:18:25.054Z,97984.38
2022-10-25T23:20:52.301Z,97982.38
2022-10-25T23:23:19.110Z,97982.09
2022-10-25T23:25:45.814Z,97985.50
2022-10-25T23:28:12.634Z,97986.91
2022-10-25T23:30:39.711Z,97986.63
2022-10-25T23:33:06.558Z,97985.22
2022-10-25T23:35:33.823Z,97976.03
2022-10-25T23:38:00.854Z,97982.06
2022-10-25T23:40:28.331Z,97976.69
2022-10-25T23:42:54.893Z,97977.03
2022-10-25T23:45:21.301Z,97975.56
2022-10-25T23:47:48.128Z,97980.41
2022-10-25T23:50:15.122Z,97984.91
2022-10-25T23:52:41.524Z,97985.78
2022-10-25T23:55:07.981Z,97981.53
2022-10-25T23:57:34.386Z,97985.94
